sensor_id;sensor_type;location;lat;lon;timestamp;P1;durP1;ratioP1;P2;durP2;ratioP2
64633;SDS011;51043;52.406;9.690;2023-04-02T00:11:40;9.17;;;4.13;;
64633;SDS011;51043;52.406;9.690;2023-04-02T00:14:14;12.27;;;4.10;;
64633;SDS011;51043;52.406;9.690;2023-04-02T00:16:44;9.50;;;3.60;;
64633;SDS011;51043;52.406;9.690;2023-04-02T00:19:16;7.73;;;3.73;;
64633;SDS011;51043;52.406;9.690;2023-04-02T00:21:48;10.57;;;4.33;;
64633;SDS011;51043;52.406;9.690;2023-04-02T00:24:18;9.10;;;3.73;;
64633;SDS011;51043;52.406;9.690;2023-04-02T00:26:47;9.37;;;3.70;;
64633;SDS011;51043;52.406;9.690;2023-04-02T00:29:16;7.60;;;3.77;;
64633;SDS011;51043;52.406;9.690;2023-04-02T00:31:45;7.83;;;3.40;;
64633;SDS011;51043;52.406;9.690;2023-04-02T00:34:29;8.50;;;3.77;;
64633;SDS011;51043;52.406;9.690;2023-04-02T00:36:59;7.83;;;3.10;;
64633;SDS011;51043;52.406;9.690;2023-04-02T00:39:28;6.83;;;3.50;;
64633;SDS011;51043;52.406;9.690;2023-04-02T00:41:58;9.60;;;3.47;;
64633;SDS011;51043;52.406;9.690;2023-04-02T00:44:31;10.17;;;3.10;;
64633;SDS011;51043;52.406;9.690;2023-04-02T00:47:06;7.17;;;3.80;;
64633;SDS011;51043;52.406;9.690;2023-04-02T00:49:40;11.63;;;4.07;;
64633;SDS011;51043;52.406;9.690;2023-04-02T00:52:08;6.47;;;3.00;;
64633;SDS011;51043;52.406;9.690;2023-04-02T00:54:47;7.03;;;3.50;;
64633;SDS011;51043;52.406;9.690;2023-04-02T00:57:19;9.10;;;2.90;;
64633;SDS011;51043;52.406;9.690;2023-04-02T00:59:55;9.73;;;3.63;;
64633;SDS011;51043;52.406;9.690;2023-04-02T01:02:35;5.87;;;3.10;;
64633;SDS011;51043;52.406;9.690;2023-04-02T01:05:19;8.77;;;3.20;;
64633;SDS011;51043;52.406;9.690;2023-04-02T01:07:56;10.17;;;3.23;;
64633;SDS011;51043;52.406;9.690;2023-04-02T01:10:50;6.90;;;2.90;;
64633;SDS011;51043;52.406;9.690;2023-04-02T01:13:31;6.83;;;3.37;;
64633;SDS011;51043;52.406;9.690;2023-04-02T01:19:21;8.00;;;2.83;;
64633;SDS011;51043;52.406;9.690;2023-04-02T01:21:59;9.63;;;3.20;;
64633;SDS011;51043;52.406;9.690;2023-04-02T01:24:48;10.90;;;3.60;;
64633;SDS011;51043;52.406;9.690;2023-04-02T01:27:17;10.67;;;3.50;;
64633;SDS011;51043;52.406;9.690;2023-04-02T01:29:55;8.27;;;3.23;;
64633;SDS011;51043;52.406;9.690;2023-04-02T01:32:24;7.97;;;3.20;;
64633;SDS011;51043;52.406;9.690;2023-04-02T01:34:54;7.57;;;2.83;;
64633;SDS011;51043;52.406;9.690;2023-04-02T01:37:36;7.27;;;2.57;;
64633;SDS011;51043;52.406;9.690;2023-04-02T01:45:39;5.30;;;2.83;;
64633;SDS011;51043;52.406;9.690;2023-04-02T01:48:15;8.40;;;2.90;;
64633;SDS011;51043;52.406;9.690;2023-04-02T01:50:48;7.10;;;2.63;;
64633;SDS011;51043;52.406;9.690;2023-04-02T01:53:18;10.87;;;3.37;;
64633;SDS011;51043;52.406;9.690;2023-04-02T01:55:48;5.10;;;2.50;;
64633;SDS011;51043;52.406;9.690;2023-04-02T01:58:21;6.63;;;2.73;;
64633;SDS011;51043;52.406;9.690;2023-04-02T02:00:53;6.00;;;2.37;;
64633;SDS011;51043;52.406;9.690;2023-04-02T02:03:41;7.40;;;2.73;;
64633;SDS011;51043;52.406;9.690;2023-04-02T02:06:11;4.60;;;2.47;;
64633;SDS011;51043;52.406;9.690;2023-04-02T02:11:13;5.23;;;2.27;;
64633;SDS011;51043;52.406;9.690;2023-04-02T02:13:52;4.93;;;2.60;;
64633;SDS011;51043;52.406;9.690;2023-04-02T02:16:22;7.90;;;2.60;;
64633;SDS011;51043;52.406;9.690;2023-04-02T02:18:54;5.90;;;2.40;;
64633;SDS011;51043;52.406;9.690;2023-04-02T02:24:02;6.43;;;2.80;;
64633;SDS011;51043;52.406;9.690;2023-04-02T02:26:30;6.20;;;2.40;;
64633;SDS011;51043;52.406;9.690;2023-04-02T02:29:01;7.77;;;2.47;;
64633;SDS011;51043;52.406;9.690;2023-04-02T02:31:31;6.20;;;2.50;;
64633;SDS011;51043;52.406;9.690;2023-04-02T02:34:13;5.63;;;2.43;;
64633;SDS011;51043;52.406;9.690;2023-04-02T02:39:43;6.67;;;2.40;;
64633;SDS011;51043;52.406;9.690;2023-04-02T02:42:27;6.30;;;2.43;;
64633;SDS011;51043;52.406;9.690;2023-04-02T02:45:00;8.60;;;2.50;;
64633;SDS011;51043;52.406;9.690;2023-04-02T02:47:33;6.67;;;2.43;;
64633;SDS011;51043;52.406;9.690;2023-04-02T02:50:06;8.10;;;2.73;;
64633;SDS011;51043;52.406;9.690;2023-04-02T02:52:38;4.93;;;2.47;;
64633;SDS011;51043;52.406;9.690;2023-04-02T02:55:11;5.90;;;2.20;;
64633;SDS011;51043;52.406;9.690;2023-04-02T02:58:01;6.47;;;2.70;;
64633;SDS011;51043;52.406;9.690;2023-04-02T03:00:43;6.50;;;2.30;;
64633;SDS011;51043;52.406;9.690;2023-04-02T03:03:22;4.47;;;2.57;;
64633;SDS011;51043;52.406;9.690;2023-04-02T03:06:03;6.17;;;2.77;;
64633;SDS011;51043;52.406;9.690;2023-04-02T03:08:37;7.93;;;3.10;;
64633;SDS011;51043;52.406;9.690;2023-04-02T03:11:24;6.80;;;2.30;;
64633;SDS011;51043;52.406;9.690;2023-04-02T03:14:26;7.17;;;2.23;;
64633;SDS011;51043;52.406;9.690;2023-04-02T03:17:02;5.80;;;2.73;;
64633;SDS011;51043;52.406;9.690;2023-04-02T03:19:37;5.60;;;2.30;;
64633;SDS011;51043;52.406;9.690;2023-04-02T03:22:24;6.40;;;2.13;;
64633;SDS011;51043;52.406;9.690;2023-04-02T03:28:06;5.10;;;2.27;;
64633;SDS011;51043;52.406;9.690;2023-04-02T03:30:43;4.20;;;2.07;;
64633;SDS011;51043;52.406;9.690;2023-04-02T03:33:23;7.43;;;2.80;;
64633;SDS011;51043;52.406;9.690;2023-04-02T03:36:25;7.27;;;2.07;;
64633;SDS011;51043;52.406;9.690;2023-04-02T03:41:40;4.47;;;2.13;;
64633;SDS011;51043;52.406;9.690;2023-04-02T03:44:23;6.97;;;2.43;;
64633;SDS011;51043;52.406;9.690;2023-04-02T03:46:57;6.17;;;2.40;;
64633;SDS011;51043;52.406;9.690;2023-04-02T03:50:05;6.73;;;2.30;;
64633;SDS011;51043;52.406;9.690;2023-04-02T03:52:32;4.70;;;2.23;;
64633;SDS011;51043;52.406;9.690;2023-04-02T03:55:38;4.90;;;2.33;;
64633;SDS011;51043;52.406;9.690;2023-04-02T03:58:10;8.13;;;2.20;;
64633;SDS011;51043;52.406;9.690;2023-04-02T04:00:52;7.73;;;2.20;;
64633;SDS011;51043;52.406;9.690;2023-04-02T04:03:43;3.20;;;1.90;;
64633;SDS011;51043;52.406;9.690;2023-04-02T04:06:19;5.87;;;2.10;;
64633;SDS011;51043;52.406;9.690;2023-04-02T04:08:50;6.23;;;2.30;;
64633;SDS011;51043;52.406;9.690;2023-04-02T04:11:25;3.17;;;1.67;;
64633;SDS011;51043;52.406;9.690;2023-04-02T04:13:58;5.27;;;2.10;;
64633;SDS011;51043;52.406;9.690;2023-04-02T04:16:31;4.63;;;1.97;;
64633;SDS011;51043;52.406;9.690;2023-04-02T04:19:18;5.17;;;2.00;;
64633;SDS011;51043;52.406;9.690;2023-04-02T04:21:50;5.60;;;2.10;;
64633;SDS011;51043;52.406;9.690;2023-04-02T04:24:24;6.53;;;2.20;;
64633;SDS011;51043;52.406;9.690;2023-04-02T04:29:58;3.87;;;1.90;;
64633;SDS011;51043;52.406;9.690;2023-04-02T04:32:37;3.53;;;1.80;;
64633;SDS011;51043;52.406;9.690;2023-04-02T04:35:23;5.37;;;2.07;;
64633;SDS011;51043;52.406;9.690;2023-04-02T04:38:12;5.20;;;2.37;;
64633;SDS011;51043;52.406;9.690;2023-04-02T04:41:10;3.90;;;2.07;;
64633;SDS011;51043;52.406;9.690;2023-04-02T04:46:27;4.20;;;2.20;;
64633;SDS011;51043;52.406;9.690;2023-04-02T04:51:50;5.03;;;1.93;;
64633;SDS011;51043;52.406;9.690;2023-04-02T04:54:23;6.70;;;2.40;;
64633;SDS011;51043;52.406;9.690;2023-04-02T04:56:58;6.20;;;2.17;;
64633;SDS011;51043;52.406;9.690;2023-04-02T04:59:31;5.93;;;1.90;;
64633;SDS011;51043;52.406;9.690;2023-04-02T05:02:09;6.57;;;2.33;;
64633;SDS011;51043;52.406;9.690;2023-04-02T05:04:43;5.63;;;1.93;;
64633;SDS011;51043;52.406;9.690;2023-04-02T05:07:29;7.17;;;2.17;;
64633;SDS011;51043;52.406;9.690;2023-04-02T05:10:06;6.40;;;1.90;;
64633;SDS011;51043;52.406;9.690;2023-04-02T05:15:39;6.03;;;1.93;;
64633;SDS011;51043;52.406;9.690;2023-04-02T05:21:04;4.17;;;1.97;;
64633;SDS011;51043;52.406;9.690;2023-04-02T05:26:14;7.03;;;1.93;;
64633;SDS011;51043;52.406;9.690;2023-04-02T05:29:14;5.73;;;1.93;;
64633;SDS011;51043;52.406;9.690;2023-04-02T05:32:03;5.83;;;2.00;;
64633;SDS011;51043;52.406;9.690;2023-04-02T05:34:45;6.70;;;2.20;;
64633;SDS011;51043;52.406;9.690;2023-04-02T05:37:17;5.00;;;1.73;;
64633;SDS011;51043;52.406;9.690;2023-04-02T05:39:51;8.00;;;2.30;;
64633;SDS011;51043;52.406;9.690;2023-04-02T05:42:22;4.30;;;2.17;;
64633;SDS011;51043;52.406;9.690;2023-04-02T05:47:54;5.37;;;2.30;;
64633;SDS011;51043;52.406;9.690;2023-04-02T05:50:33;7.43;;;2.10;;
64633;SDS011;51043;52.406;9.690;2023-04-02T05:53:12;3.77;;;2.00;;
64633;SDS011;51043;52.406;9.690;2023-04-02T05:58:25;5.80;;;2.80;;
64633;SDS011;51043;52.406;9.690;2023-04-02T06:01:06;6.23;;;2.50;;
64633;SDS011;51043;52.406;9.690;2023-04-02T06:06:57;4.33;;;1.97;;
64633;SDS011;51043;52.406;9.690;2023-04-02T06:09:43;3.53;;;2.00;;
64633;SDS011;51043;52.406;9.690;2023-04-02T06:15:18;5.37;;;2.40;;
64633;SDS011;51043;52.406;9.690;2023-04-02T06:20:39;4.53;;;2.00;;
64633;SDS011;51043;52.406;9.690;2023-04-02T06:23:08;5.50;;;2.40;;
64633;SDS011;51043;52.406;9.690;2023-04-02T06:25:43;8.07;;;2.13;;
64633;SDS011;51043;52.406;9.690;2023-04-02T06:28:20;7.67;;;2.73;;
64633;SDS011;51043;52.406;9.690;2023-04-02T06:30:55;7.23;;;2.40;;
64633;SDS011;51043;52.406;9.690;2023-04-02T06:33:26;4.67;;;2.10;;
64633;SDS011;51043;52.406;9.690;2023-04-02T06:35:53;4.13;;;2.07;;
64633;SDS011;51043;52.406;9.690;2023-04-02T06:38:28;4.00;;;2.13;;
64633;SDS011;51043;52.406;9.690;2023-04-02T06:40:57;5.43;;;1.90;;
64633;SDS011;51043;52.406;9.690;2023-04-02T06:43:38;6.63;;;2.40;;
64633;SDS011;51043;52.406;9.690;2023-04-02T06:46:37;3.70;;;1.97;;
64633;SDS011;51043;52.406;9.690;2023-04-02T06:52:29;3.83;;;1.90;;
64633;SDS011;51043;52.406;9.690;2023-04-02T06:55:25;3.70;;;1.90;;
64633;SDS011;51043;52.406;9.690;2023-04-02T06:57:58;4.20;;;2.03;;
64633;SDS011;51043;52.406;9.690;2023-04-02T07:00:33;2.80;;;1.77;;
64633;SDS011;51043;52.406;9.690;2023-04-02T07:03:13;7.83;;;2.17;;
64633;SDS011;51043;52.406;9.690;2023-04-02T07:05:53;2.70;;;1.90;;
64633;SDS011;51043;52.406;9.690;2023-04-02T07:08:21;4.10;;;1.87;;
64633;SDS011;51043;52.406;9.690;2023-04-02T07:10:51;3.37;;;1.73;;
64633;SDS011;51043;52.406;9.690;2023-04-02T07:13:19;5.60;;;2.10;;
64633;SDS011;51043;52.406;9.690;2023-04-02T07:15:48;4.10;;;2.00;;
64633;SDS011;51043;52.406;9.690;2023-04-02T07:18:22;5.37;;;2.30;;
64633;SDS011;51043;52.406;9.690;2023-04-02T07:21:00;6.50;;;2.30;;
64633;SDS011;51043;52.406;9.690;2023-04-02T07:23:27;6.80;;;2.13;;
64633;SDS011;51043;52.406;9.690;2023-04-02T07:25:54;4.87;;;2.17;;
64633;SDS011;51043;52.406;9.690;2023-04-02T07:28:25;6.27;;;2.20;;
64633;SDS011;51043;52.406;9.690;2023-04-02T07:30:52;4.20;;;1.80;;
64633;SDS011;51043;52.406;9.690;2023-04-02T07:33:22;6.63;;;2.30;;
64633;SDS011;51043;52.406;9.690;2023-04-02T07:35:51;4.83;;;2.33;;
64633;SDS011;51043;52.406;9.690;2023-04-02T07:38:20;4.17;;;2.27;;
64633;SDS011;51043;52.406;9.690;2023-04-02T07:40:47;6.57;;;2.07;;
64633;SDS011;51043;52.406;9.690;2023-04-02T07:43:14;3.23;;;1.83;;
64633;SDS011;51043;52.406;9.690;2023-04-02T07:45:41;4.10;;;2.00;;
64633;SDS011;51043;52.406;9.690;2023-04-02T07:48:09;4.37;;;2.27;;
64633;SDS011;51043;52.406;9.690;2023-04-02T07:50:38;8.27;;;2.47;;
64633;SDS011;51043;52.406;9.690;2023-04-02T07:53:06;7.20;;;2.10;;
64633;SDS011;51043;52.406;9.690;2023-04-02T07:55:34;3.20;;;2.00;;
64633;SDS011;51043;52.406;9.690;2023-04-02T07:58:01;5.00;;;1.80;;
64633;SDS011;51043;52.406;9.690;2023-04-02T08:00:29;4.00;;;2.40;;
64633;SDS011;51043;52.406;9.690;2023-04-02T08:02:56;2.70;;;1.60;;
64633;SDS011;51043;52.406;9.690;2023-04-02T08:05:23;3.33;;;1.77;;
64633;SDS011;51043;52.406;9.690;2023-04-02T08:07:54;4.37;;;2.00;;
64633;SDS011;51043;52.406;9.690;2023-04-02T08:10:22;2.60;;;1.60;;
64633;SDS011;51043;52.406;9.690;2023-04-02T08:12:50;3.13;;;1.70;;
64633;SDS011;51043;52.406;9.690;2023-04-02T08:15:17;3.03;;;1.90;;
64633;SDS011;51043;52.406;9.690;2023-04-02T08:17:44;7.20;;;2.30;;
64633;SDS011;51043;52.406;9.690;2023-04-02T08:20:18;3.73;;;2.20;;
64633;SDS011;51043;52.406;9.690;2023-04-02T08:22:47;3.93;;;2.20;;
64633;SDS011;51043;52.406;9.690;2023-04-02T08:25:15;7.87;;;2.40;;
64633;SDS011;51043;52.406;9.690;2023-04-02T08:27:44;5.20;;;1.70;;
64633;SDS011;51043;52.406;9.690;2023-04-02T08:30:13;3.97;;;2.10;;
64633;SDS011;51043;52.406;9.690;2023-04-02T08:32:42;4.23;;;2.00;;
64633;SDS011;51043;52.406;9.690;2023-04-02T08:35:10;9.30;;;2.40;;
64633;SDS011;51043;52.406;9.690;2023-04-02T08:37:38;4.53;;;2.00;;
64633;SDS011;51043;52.406;9.690;2023-04-02T08:40:06;4.70;;;1.90;;
64633;SDS011;51043;52.406;9.690;2023-04-02T08:42:38;4.63;;;1.90;;
64633;SDS011;51043;52.406;9.690;2023-04-02T08:45:46;3.93;;;1.90;;
64633;SDS011;51043;52.406;9.690;2023-04-02T08:48:12;5.63;;;1.87;;
64633;SDS011;51043;52.406;9.690;2023-04-02T08:50:41;4.30;;;2.10;;
64633;SDS011;51043;52.406;9.690;2023-04-02T08:53:14;3.63;;;1.90;;
64633;SDS011;51043;52.406;9.690;2023-04-02T09:00:53;4.10;;;1.93;;
64633;SDS011;51043;52.406;9.690;2023-04-02T09:05:53;6.07;;;2.40;;
64633;SDS011;51043;52.406;9.690;2023-04-02T09:08:26;4.77;;;1.90;;
64633;SDS011;51043;52.406;9.690;2023-04-02T09:11:01;3.83;;;1.70;;
64633;SDS011;51043;52.406;9.690;2023-04-02T09:13:30;5.33;;;1.80;;
64633;SDS011;51043;52.406;9.690;2023-04-02T09:16:05;4.50;;;1.70;;
64633;SDS011;51043;52.406;9.690;2023-04-02T09:18:36;4.40;;;2.03;;
64633;SDS011;51043;52.406;9.690;2023-04-02T09:23:47;4.20;;;1.50;;
64633;SDS011;51043;52.406;9.690;2023-04-02T09:26:18;4.53;;;1.90;;
64633;SDS011;51043;52.406;9.690;2023-04-02T09:28:54;6.67;;;2.20;;
64633;SDS011;51043;52.406;9.690;2023-04-02T09:31:33;3.87;;;2.10;;
64633;SDS011;51043;52.406;9.690;2023-04-02T09:34:35;5.03;;;1.73;;
64633;SDS011;51043;52.406;9.690;2023-04-02T09:37:20;3.00;;;1.83;;
64633;SDS011;51043;52.406;9.690;2023-04-02T09:39:55;7.43;;;1.97;;
64633;SDS011;51043;52.406;9.690;2023-04-02T09:42:41;6.33;;;1.90;;
64633;SDS011;51043;52.406;9.690;2023-04-02T09:45:25;4.43;;;1.80;;
64633;SDS011;51043;52.406;9.690;2023-04-02T09:47:53;4.23;;;1.57;;
64633;SDS011;51043;52.406;9.690;2023-04-02T09:50:31;4.07;;;1.67;;
64633;SDS011;51043;52.406;9.690;2023-04-02T09:53:15;4.20;;;1.83;;
64633;SDS011;51043;52.406;9.690;2023-04-02T09:56:06;6.60;;;2.00;;
64633;SDS011;51043;52.406;9.690;2023-04-02T09:58:37;4.63;;;2.20;;
64633;SDS011;51043;52.406;9.690;2023-04-02T10:01:05;3.60;;;1.83;;
64633;SDS011;51043;52.406;9.690;2023-04-02T10:03:44;5.77;;;1.97;;
64633;SDS011;51043;52.406;9.690;2023-04-02T10:06:12;5.83;;;2.30;;
64633;SDS011;51043;52.406;9.690;2023-04-02T10:08:41;4.27;;;1.70;;
64633;SDS011;51043;52.406;9.690;2023-04-02T10:11:18;2.93;;;1.63;;
64633;SDS011;51043;52.406;9.690;2023-04-02T10:14:14;2.57;;;1.70;;
64633;SDS011;51043;52.406;9.690;2023-04-02T10:17:26;2.90;;;1.93;;
64633;SDS011;51043;52.406;9.690;2023-04-02T10:19:55;2.40;;;1.83;;
64633;SDS011;51043;52.406;9.690;2023-04-02T10:22:26;4.17;;;1.80;;
64633;SDS011;51043;52.406;9.690;2023-04-02T10:24:54;4.77;;;2.00;;
64633;SDS011;51043;52.406;9.690;2023-04-02T10:27:43;4.30;;;2.10;;
64633;SDS011;51043;52.406;9.690;2023-04-02T10:30:23;2.73;;;1.70;;
64633;SDS011;51043;52.406;9.690;2023-04-02T10:32:55;4.77;;;1.83;;
64633;SDS011;51043;52.406;9.690;2023-04-02T10:35:53;3.33;;;1.70;;
64633;SDS011;51043;52.406;9.690;2023-04-02T10:38:37;3.77;;;2.00;;
64633;SDS011;51043;52.406;9.690;2023-04-02T10:41:37;4.27;;;1.67;;
64633;SDS011;51043;52.406;9.690;2023-04-02T10:44:07;5.10;;;2.10;;
64633;SDS011;51043;52.406;9.690;2023-04-02T10:49:39;4.30;;;1.87;;
64633;SDS011;51043;52.406;9.690;2023-04-02T10:52:15;6.47;;;1.80;;
64633;SDS011;51043;52.406;9.690;2023-04-02T10:54:49;5.90;;;1.90;;
64633;SDS011;51043;52.406;9.690;2023-04-02T10:57:36;4.27;;;1.90;;
64633;SDS011;51043;52.406;9.690;2023-04-02T11:02:58;3.40;;;1.80;;
64633;SDS011;51043;52.406;9.690;2023-04-02T11:05:35;4.60;;;1.57;;
64633;SDS011;51043;52.406;9.690;2023-04-02T11:10:41;3.13;;;1.70;;
64633;SDS011;51043;52.406;9.690;2023-04-02T11:13:21;2.73;;;1.67;;
64633;SDS011;51043;52.406;9.690;2023-04-02T11:16:02;3.70;;;1.93;;
64633;SDS011;51043;52.406;9.690;2023-04-02T11:18:32;6.03;;;2.27;;
64633;SDS011;51043;52.406;9.690;2023-04-02T11:21:04;2.97;;;1.60;;
64633;SDS011;51043;52.406;9.690;2023-04-02T11:23:55;4.30;;;2.00;;
64633;SDS011;51043;52.406;9.690;2023-04-02T11:26:28;4.33;;;1.70;;
64633;SDS011;51043;52.406;9.690;2023-04-02T11:31:47;3.93;;;1.70;;
64633;SDS011;51043;52.406;9.690;2023-04-02T11:39:57;4.47;;;2.03;;
64633;SDS011;51043;52.406;9.690;2023-04-02T11:44:53;2.10;;;1.40;;
64633;SDS011;51043;52.406;9.690;2023-04-02T11:47:22;3.43;;;1.80;;
64633;SDS011;51043;52.406;9.690;2023-04-02T11:52:22;4.10;;;1.90;;
64633;SDS011;51043;52.406;9.690;2023-04-02T11:54:54;4.13;;;1.60;;
64633;SDS011;51043;52.406;9.690;2023-04-02T11:57:36;4.10;;;2.20;;
64633;SDS011;51043;52.406;9.690;2023-04-02T12:00:22;4.57;;;1.87;;
64633;SDS011;51043;52.406;9.690;2023-04-02T12:05:53;2.60;;;1.47;;
64633;SDS011;51043;52.406;9.690;2023-04-02T12:08:36;3.42;;;1.73;;
64633;SDS011;51043;52.406;9.690;2023-04-02T12:11:12;3.58;;;1.52;;
64633;SDS011;51043;52.406;9.690;2023-04-02T12:16:07;4.22;;;1.42;;
64633;SDS011;51043;52.406;9.690;2023-04-02T12:18:40;4.68;;;1.88;;
64633;SDS011;51043;52.406;9.690;2023-04-02T12:21:19;3.55;;;1.73;;
64633;SDS011;51043;52.406;9.690;2023-04-02T12:23:52;3.88;;;1.40;;
64633;SDS011;51043;52.406;9.690;2023-04-02T12:26:29;5.80;;;1.55;;
64633;SDS011;51043;52.406;9.690;2023-04-02T12:31:46;2.50;;;1.42;;
64633;SDS011;51043;52.406;9.690;2023-04-02T12:34:14;3.28;;;1.52;;
64633;SDS011;51043;52.406;9.690;2023-04-02T12:36:53;4.65;;;1.70;;
64633;SDS011;51043;52.406;9.690;2023-04-02T12:39:21;2.85;;;1.50;;
64633;SDS011;51043;52.406;9.690;2023-04-02T12:41:49;4.80;;;1.85;;
64633;SDS011;51043;52.406;9.690;2023-04-02T12:44:18;3.03;;;1.48;;
64633;SDS011;51043;52.406;9.690;2023-04-02T12:46:47;1.85;;;1.33;;
64633;SDS011;51043;52.406;9.690;2023-04-02T12:52:07;2.87;;;1.40;;
64633;SDS011;51043;52.406;9.690;2023-04-02T12:54:47;3.07;;;1.47;;
64633;SDS011;51043;52.406;9.690;2023-04-02T12:57:20;2.43;;;1.60;;
64633;SDS011;51043;52.406;9.690;2023-04-02T13:02:50;2.83;;;1.40;;
64633;SDS011;51043;52.406;9.690;2023-04-02T13:05:31;2.30;;;1.20;;
64633;SDS011;51043;52.406;9.690;2023-04-02T13:07:58;3.33;;;1.50;;
64633;SDS011;51043;52.406;9.690;2023-04-02T13:10:25;2.67;;;1.40;;
64633;SDS011;51043;52.406;9.690;2023-04-02T13:12:54;1.73;;;1.30;;
64633;SDS011;51043;52.406;9.690;2023-04-02T13:15:22;2.73;;;1.30;;
64633;SDS011;51043;52.406;9.690;2023-04-02T13:20:42;4.33;;;1.30;;
64633;SDS011;51043;52.406;9.690;2023-04-02T13:23:38;4.13;;;1.50;;
64633;SDS011;51043;52.406;9.690;2023-04-02T13:28:37;2.50;;;1.40;;
64633;SDS011;51043;52.406;9.690;2023-04-02T13:31:04;2.27;;;1.50;;
64633;SDS011;51043;52.406;9.690;2023-04-02T13:33:31;3.83;;;1.50;;
64633;SDS011;51043;52.406;9.690;2023-04-02T13:35:58;5.40;;;2.37;;
64633;SDS011;51043;52.406;9.690;2023-04-02T13:38:25;3.33;;;1.50;;
64633;SDS011;51043;52.406;9.690;2023-04-02T13:40:52;1.53;;;1.17;;
64633;SDS011;51043;52.406;9.690;2023-04-02T13:43:19;2.47;;;1.20;;
64633;SDS011;51043;52.406;9.690;2023-04-02T13:45:47;3.17;;;1.33;;
64633;SDS011;51043;52.406;9.690;2023-04-02T13:48:16;2.40;;;1.20;;
64633;SDS011;51043;52.406;9.690;2023-04-02T13:50:43;2.57;;;1.27;;
64633;SDS011;51043;52.406;9.690;2023-04-02T13:53:20;4.47;;;1.60;;
64633;SDS011;51043;52.406;9.690;2023-04-02T13:55:53;3.23;;;1.60;;
64633;SDS011;51043;52.406;9.690;2023-04-02T13:58:20;2.73;;;1.43;;
64633;SDS011;51043;52.406;9.690;2023-04-02T14:00:46;4.13;;;1.53;;
64633;SDS011;51043;52.406;9.690;2023-04-02T14:03:15;2.70;;;1.43;;
64633;SDS011;51043;52.406;9.690;2023-04-02T14:08:29;1.80;;;1.40;;
64633;SDS011;51043;52.406;9.690;2023-04-02T14:11:21;3.60;;;1.50;;
64633;SDS011;51043;52.406;9.690;2023-04-02T14:19:35;1.70;;;1.20;;
64633;SDS011;51043;52.406;9.690;2023-04-02T14:22:31;3.10;;;1.60;;
64633;SDS011;51043;52.406;9.690;2023-04-02T14:25:38;2.77;;;1.53;;
64633;SDS011;51043;52.406;9.690;2023-04-02T14:36:50;3.20;;;1.50;;
64633;SDS011;51043;52.406;9.690;2023-04-02T14:39:43;3.03;;;1.30;;
64633;SDS011;51043;52.406;9.690;2023-04-02T14:42:18;3.13;;;1.50;;
64633;SDS011;51043;52.406;9.690;2023-04-02T14:44:57;4.77;;;1.50;;
64633;SDS011;51043;52.406;9.690;2023-04-02T14:47:38;3.37;;;1.50;;
64633;SDS011;51043;52.406;9.690;2023-04-02T14:50:11;3.37;;;1.50;;
64633;SDS011;51043;52.406;9.690;2023-04-02T14:52:44;3.53;;;1.50;;
64633;SDS011;51043;52.406;9.690;2023-04-02T14:55:25;3.27;;;1.50;;
64633;SDS011;51043;52.406;9.690;2023-04-02T14:57:59;2.13;;;1.40;;
64633;SDS011;51043;52.406;9.690;2023-04-02T15:00:34;2.77;;;1.50;;
64633;SDS011;51043;52.406;9.690;2023-04-02T15:03:11;4.83;;;1.67;;
64633;SDS011;51043;52.406;9.690;2023-04-02T15:05:44;4.20;;;1.60;;
64633;SDS011;51043;52.406;9.690;2023-04-02T15:08:23;4.10;;;1.97;;
64633;SDS011;51043;52.406;9.690;2023-04-02T15:13:26;2.87;;;1.40;;
64633;SDS011;51043;52.406;9.690;2023-04-02T15:16:06;3.67;;;1.70;;
64633;SDS011;51043;52.406;9.690;2023-04-02T15:18:44;3.30;;;1.57;;
64633;SDS011;51043;52.406;9.690;2023-04-02T15:21:24;2.20;;;1.60;;
64633;SDS011;51043;52.406;9.690;2023-04-02T15:26:50;2.73;;;1.50;;
64633;SDS011;51043;52.406;9.690;2023-04-02T15:32:36;3.63;;;1.67;;
64633;SDS011;51043;52.406;9.690;2023-04-02T15:35:18;3.40;;;1.60;;
64633;SDS011;51043;52.406;9.690;2023-04-02T15:38:22;7.53;;;1.53;;
64633;SDS011;51043;52.406;9.690;2023-04-02T15:40:56;3.93;;;1.20;;
64633;SDS011;51043;52.406;9.690;2023-04-02T15:43:47;4.53;;;1.60;;
64633;SDS011;51043;52.406;9.690;2023-04-02T15:47:07;4.07;;;1.73;;
64633;SDS011;51043;52.406;9.690;2023-04-02T15:50:01;4.40;;;1.77;;
64633;SDS011;51043;52.406;9.690;2023-04-02T15:52:53;4.50;;;1.60;;
64633;SDS011;51043;52.406;9.690;2023-04-02T15:55:53;4.10;;;1.60;;
64633;SDS011;51043;52.406;9.690;2023-04-02T16:04:18;3.90;;;1.53;;
64633;SDS011;51043;52.406;9.690;2023-04-02T16:07:14;2.87;;;1.60;;
64633;SDS011;51043;52.406;9.690;2023-04-02T16:12:32;3.57;;;1.70;;
64633;SDS011;51043;52.406;9.690;2023-04-02T16:15:13;3.93;;;1.70;;
64633;SDS011;51043;52.406;9.690;2023-04-02T16:17:44;4.87;;;1.83;;
64633;SDS011;51043;52.406;9.690;2023-04-02T16:20:21;3.77;;;1.50;;
64633;SDS011;51043;52.406;9.690;2023-04-02T16:23:02;8.63;;;2.00;;
64633;SDS011;51043;52.406;9.690;2023-04-02T16:28:37;3.60;;;1.60;;
64633;SDS011;51043;52.406;9.690;2023-04-02T16:31:27;3.67;;;1.73;;
64633;SDS011;51043;52.406;9.690;2023-04-02T16:48:39;5.03;;;1.70;;
64633;SDS011;51043;52.406;9.690;2023-04-02T16:54:29;3.40;;;1.80;;
64633;SDS011;51043;52.406;9.690;2023-04-02T17:08:36;3.10;;;1.60;;
64633;SDS011;51043;52.406;9.690;2023-04-02T17:11:22;4.43;;;2.27;;
64633;SDS011;51043;52.406;9.690;2023-04-02T17:13:56;5.17;;;1.93;;
64633;SDS011;51043;52.406;9.690;2023-04-02T17:16:39;3.67;;;1.67;;
64633;SDS011;51043;52.406;9.690;2023-04-02T17:19:12;4.57;;;1.50;;
64633;SDS011;51043;52.406;9.690;2023-04-02T17:21:45;7.67;;;1.83;;
64633;SDS011;51043;52.406;9.690;2023-04-02T17:27:04;4.43;;;1.60;;
64633;SDS011;51043;52.406;9.690;2023-04-02T17:29:53;5.97;;;2.20;;
64633;SDS011;51043;52.406;9.690;2023-04-02T17:32:29;5.53;;;1.80;;
64633;SDS011;51043;52.406;9.690;2023-04-02T17:38:00;3.77;;;1.93;;
64633;SDS011;51043;52.406;9.690;2023-04-02T17:40:42;4.33;;;2.00;;
64633;SDS011;51043;52.406;9.690;2023-04-02T17:49:56;4.70;;;1.70;;
64633;SDS011;51043;52.406;9.690;2023-04-02T17:52:43;5.13;;;2.93;;
64633;SDS011;51043;52.406;9.690;2023-04-02T18:00:21;5.30;;;2.70;;
64633;SDS011;51043;52.406;9.690;2023-04-02T18:12:01;5.73;;;2.73;;
64633;SDS011;51043;52.406;9.690;2023-04-02T18:17:46;5.67;;;2.90;;
64633;SDS011;51043;52.406;9.690;2023-04-02T18:25:44;4.90;;;2.47;;
64633;SDS011;51043;52.406;9.690;2023-04-02T18:28:26;8.30;;;2.50;;
64633;SDS011;51043;52.406;9.690;2023-04-02T18:31:00;3.33;;;2.07;;
64633;SDS011;51043;52.406;9.690;2023-04-02T18:39:30;10.20;;;2.20;;
64633;SDS011;51043;52.406;9.690;2023-04-02T18:42:15;5.27;;;2.30;;
64633;SDS011;51043;52.406;9.690;2023-04-02T18:45:10;3.67;;;2.00;;
64633;SDS011;51043;52.406;9.690;2023-04-02T18:53:10;4.70;;;1.80;;
64633;SDS011;51043;52.406;9.690;2023-04-02T18:55:48;6.47;;;2.70;;
64633;SDS011;51043;52.406;9.690;2023-04-02T18:58:24;5.17;;;2.40;;
64633;SDS011;51043;52.406;9.690;2023-04-02T19:01:03;4.13;;;2.00;;
64633;SDS011;51043;52.406;9.690;2023-04-02T19:03:42;6.40;;;2.20;;
64633;SDS011;51043;52.406;9.690;2023-04-02T19:06:25;3.57;;;2.10;;
64633;SDS011;51043;52.406;9.690;2023-04-02T19:08:59;5.07;;;2.13;;
64633;SDS011;51043;52.406;9.690;2023-04-02T19:11:32;4.33;;;2.07;;
64633;SDS011;51043;52.406;9.690;2023-04-02T19:14:08;7.07;;;2.27;;
64633;SDS011;51043;52.406;9.690;2023-04-02T19:16:45;5.53;;;2.50;;
64633;SDS011;51043;52.406;9.690;2023-04-02T19:22:49;5.33;;;2.33;;
64633;SDS011;51043;52.406;9.690;2023-04-02T19:34:10;7.33;;;3.63;;
64633;SDS011;51043;52.406;9.690;2023-04-02T19:36:50;5.47;;;2.53;;
64633;SDS011;51043;52.406;9.690;2023-04-02T19:42:16;6.27;;;2.50;;
64633;SDS011;51043;52.406;9.690;2023-04-02T19:44:47;4.57;;;2.60;;
64633;SDS011;51043;52.406;9.690;2023-04-02T19:47:16;4.63;;;2.50;;
64633;SDS011;51043;52.406;9.690;2023-04-02T19:49:49;5.93;;;2.63;;